Time,TemperatureF,DewpointF,PressureIn,WindDirection,WindDirectionDegrees,WindSpeedMPH,WindSpeedGustMPH,Humidity,HourlyPrecipIn,Conditions,Clouds,dailyrainin,SoftwareType,DateUTC
2013-03-14 00:02:00,46.0,24.0,-100.00,SW,219,3.0,6.0,41,-99.99,,,-99.99,,2013-03-14 07:02:00,
2013-03-14 00:12:00,46.0,23.0,-100.00,SW,222,3.0,5.0,40,-99.99,,,-99.99,,2013-03-14 07:12:00,
2013-03-14 00:22:00,45.0,23.0,-100.00,SW,219,2.0,6.0,42,-99.99,,,-99.99,,2013-03-14 07:22:00,
2013-03-14 00:32:00,47.0,24.0,-100.00,SW,226,4.0,7.0,39,-99.99,,,-99.99,,2013-03-14 07:32:00,
2013-03-14 00:42:00,47.0,24.0,-100.00,SW,227,4.0,9.0,40,-99.99,,,-99.99,,2013-03-14 07:42:00,
2013-03-14 00:52:00,49.0,23.0,-100.00,SW,230,6.0,9.0,35,-99.99,,,-99.99,,2013-03-14 07:52:00,
2013-03-14 01:02:00,49.0,23.0,-100.00,SW,230,6.0,9.0,35,-99.99,,,-99.99,,2013-03-14 08:02:00,
2013-03-14 01:12:00,48.0,23.0,-100.00,SW,219,5.0,10.0,37,-99.99,,,-99.99,,2013-03-14 08:12:00,
2013-03-14 01:21:00,47.0,23.0,-100.00,SW,217,6.0,10.0,38,-99.99,,,-99.99,,2013-03-14 08:21:00,
2013-03-14 01:32:00,48.0,22.0,-100.00,SW,224,7.0,14.0,36,-99.99,,,-99.99,,2013-03-14 08:32:00,
2013-03-14 01:41:00,48.0,22.0,-100.00,SW,223,6.0,12.0,35,-99.99,,,-99.99,,2013-03-14 08:41:00,
2013-03-14 01:51:00,48.0,22.0,-100.00,SW,226,6.0,9.0,36,-99.99,,,-99.99,,2013-03-14 08:51:00,
2013-03-14 02:01:00,46.0,22.0,-100.00,SW,227,5.0,9.0,38,-99.99,,,-99.99,,2013-03-14 09:01:00,
2013-03-14 02:12:00,45.0,23.0,-100.00,SW,227,4.0,7.0,41,-99.99,,,-99.99,,2013-03-14 09:12:00,
2013-03-14 02:22:00,44.0,22.0,-100.00,SW,232,3.0,7.0,42,-99.99,,,-99.99,,2013-03-14 09:22:00,
2013-03-14 02:32:00,44.0,22.0,-100.00,WSW,241,4.0,7.0,42,-99.99,,,-99.99,,2013-03-14 09:32:00,
2013-03-14 02:42:00,43.0,23.0,-100.00,WSW,240,4.0,7.0,44,-99.99,,,-99.99,,2013-03-14 09:42:00,
2013-03-14 02:52:00,40.0,22.0,-100.00,WSW,246,3.0,6.0,49,-99.99,,,-99.99,,2013-03-14 09:52:00,
2013-03-14 03:02:00,38.0,22.0,-100.00,WSW,256,1.0,5.0,52,-99.99,,,-99.99,,2013-03-14 10:02:00,
2013-03-14 03:12:00,36.0,22.0,-100.00,West,261,0.0,3.0,55,-99.99,,,-99.99,,2013-03-14 10:12:00,
2013-03-14 03:22:00,34.0,22.0,-100.00,WSW,240,1.0,3.0,61,-99.99,,,-99.99,,2013-03-14 10:22:00,
2013-03-14 03:32:00,34.0,22.0,-100.00,SW,220,1.0,3.0,61,-99.99,,,-99.99,,2013-03-14 10:32:00,
2013-03-14 03:42:00,33.0,22.0,-100.00,NW,326,0.0,2.0,64,-99.99,,,-99.99,,2013-03-14 10:42:00,
2013-03-14 03:52:00,32.0,22.0,-100.00,North,-999,0.0,0.0,68,-99.99,,,-99.99,,2013-03-14 10:52:00,
2013-03-14 04:02:00,30.0,22.0,-100.00,North,-999,0.0,0.0,71,-99.99,,,-99.99,,2013-03-14 11:02:00,
2013-03-14 04:12:00,30.0,23.0,-100.00,North,-999,0.0,0.0,73,-99.99,,,-99.99,,2013-03-14 11:12:00,
2013-03-14 04:22:00,31.0,22.0,-100.00,North,-999,0.0,0.0,71,-99.99,,,-99.99,,2013-03-14 11:22:00,
2013-03-14 04:32:00,30.0,22.0,-100.00,North,-999,0.0,0.0,71,-99.99,,,-99.99,,2013-03-14 11:32:00,
2013-03-14 04:42:00,29.0,22.0,-100.00,North,-999,0.0,0.0,74,-99.99,,,-99.99,,2013-03-14 11:42:00,
2013-03-14 04:52:00,29.0,22.0,-100.00,NW,315,0.0,0.0,74,-99.99,,,-99.99,,2013-03-14 11:52:00,
2013-03-14 05:02:00,29.0,22.0,-100.00,North,-999,0.0,0.0,75,-99.99,,,-99.99,,2013-03-14 12:02:00,
2013-03-14 05:12:00,29.0,21.0,-100.00,NNE,13,0.0,3.0,74,-99.99,,,-99.99,,2013-03-14 12:12:00,
2013-03-14 05:22:00,28.0,22.0,-100.00,NNE,32,0.0,2.0,76,-99.99,,,-99.99,,2013-03-14 12:22:00,
2013-03-14 05:33:00,29.0,23.0,-100.00,NNE,28,0.0,2.0,76,-99.99,,,-99.99,,2013-03-14 12:33:00,
2013-03-14 05:42:00,30.0,23.0,-100.00,ENE,72,0.0,2.0,75,-99.99,,,-99.99,,2013-03-14 12:42:00,
2013-03-14 05:52:00,29.0,22.0,-100.00,North,-999,0.0,0.0,74,-99.99,,,-99.99,,2013-03-14 12:52:00,
2013-03-14 06:02:00,28.0,22.0,-100.00,North,-999,0.0,0.0,76,-99.99,,,-99.99,,2013-03-14 13:02:00,
2013-03-14 06:12:00,28.0,21.0,-100.00,North,-999,0.0,0.0,76,-99.99,,,-99.99,,2013-03-14 13:12:00,
2013-03-14 06:22:00,27.0,22.0,-100.00,NNW,344,0.0,2.0,79,-99.99,,,-99.99,,2013-03-14 13:22:00,
2013-03-14 06:32:00,27.0,22.0,-100.00,NW,325,0.0,2.0,80,-99.99,,,-99.99,,2013-03-14 13:32:00,
2013-03-14 06:42:00,27.0,22.0,-100.00,North,-999,0.0,0.0,81,-99.99,,,-99.99,,2013-03-14 13:42:00,
2013-03-14 06:52:00,27.0,22.0,-100.00,NNW,329,0.0,2.0,81,-99.99,,,-99.99,,2013-03-14 13:52:00,
2013-03-14 07:02:00,27.0,22.0,-100.00,NNE,16,0.0,2.0,81,-99.99,,,-99.99,,2013-03-14 14:02:00,
2013-03-14 07:12:00,26.0,22.0,-100.00,North,349,0.0,2.0,83,-99.99,,,-99.99,,2013-03-14 14:12:00,
2013-03-14 07:22:00,26.0,21.0,-100.00,NNE,16,0.0,2.0,82,-99.99,,,-99.99,,2013-03-14 14:22:00,
2013-03-14 07:32:00,26.0,21.0,-100.00,NNE,28,0.0,1.0,83,-99.99,,,-99.99,,2013-03-14 14:32:00,
2013-03-14 07:42:00,26.0,21.0,-100.00,North,10,0.0,3.0,83,-99.99,,,-99.99,,2013-03-14 14:42:00,
2013-03-14 07:53:00,25.0,21.0,-100.00,North,1,0.0,2.0,84,-99.99,,,-99.99,,2013-03-14 14:53:00,
2013-03-14 08:02:00,26.0,22.0,-100.00,NE,41,0.0,2.0,84,-99.99,,,-99.99,,2013-03-14 15:02:00,
2013-03-14 08:12:00,26.0,22.0,-100.00,NW,326,0.0,2.0,84,-99.99,,,-99.99,,2013-03-14 15:12:00,
2013-03-14 08:22:00,26.0,22.0,-100.00,NNW,335,1.0,2.0,83,-99.99,,,-99.99,,2013-03-14 15:22:00,
2013-03-14 10:02:00,52.0,23.0,-100.00,SSW,205,2.0,4.0,32,-99.99,,,-99.99,,2013-03-14 17:02:00,
2013-03-14 10:12:00,53.0,23.0,-100.00,SSW,212,2.0,4.0,31,-99.99,,,-99.99,,2013-03-14 17:12:00,
2013-03-14 10:23:00,54.0,26.0,-100.00,SSW,205,2.0,5.0,33,-99.99,,,-99.99,,2013-03-14 17:23:00,
2013-03-14 10:32:00,55.0,24.0,-100.00,SW,223,2.0,7.0,30,-99.99,,,-99.99,,2013-03-14 17:32:00,
2013-03-14 10:42:00,56.0,25.0,-100.00,SSW,203,3.0,6.0,30,-99.99,,,-99.99,,2013-03-14 17:42:00,
2013-03-14 10:52:00,56.0,24.0,-100.00,SW,215,5.0,11.0,29,-99.99,,,-99.99,,2013-03-14 17:52:00,
2013-03-14 11:02:00,57.0,26.0,-100.00,SW,216,7.0,11.0,30,-99.99,,,-99.99,,2013-03-14 18:02:00,
2013-03-14 11:12:00,58.0,24.0,-100.00,SW,215,9.0,15.0,27,-99.99,,,-99.99,,2013-03-14 18:12:00,
2013-03-14 11:22:00,58.0,24.0,-100.00,SW,215,9.0,15.0,27,-99.99,,,-99.99,,2013-03-14 18:22:00,
2013-03-14 11:32:00,59.0,21.0,-100.00,SSW,200,12.0,20.0,23,-99.99,,,-99.99,,2013-03-14 18:32:00,
2013-03-14 11:42:00,59.0,21.0,-100.00,SSW,200,12.0,20.0,23,-99.99,,,-99.99,,2013-03-14 18:42:00,
2013-03-14 11:52:00,59.0,19.0,-100.00,SSW,195,12.0,20.0,21,-99.99,,,-99.99,,2013-03-14 18:52:00,
2013-03-14 12:02:00,59.0,18.0,-100.00,SSW,198,12.0,19.0,20,-99.99,,,-99.99,,2013-03-14 19:02:00,
2013-03-14 12:12:00,59.0,19.0,-100.00,SSW,202,11.0,18.0,21,-99.99,,,-99.99,,2013-03-14 19:12:00,
2013-03-14 12:22:00,60.0,19.0,-100.00,SSW,198,12.0,19.0,20,-99.99,,,-99.99,,2013-03-14 19:22:00,
2013-03-14 12:32:00,60.0,19.0,-100.00,SSW,198,12.0,19.0,20,-99.99,,,-99.99,,2013-03-14 19:32:00,
2013-03-14 13:32:00,61.0,16.0,-100.00,SSW,193,13.0,23.0,17,-99.99,,,-99.99,,2013-03-14 20:32:00,
2013-03-14 13:42:00,62.0,20.0,-100.00,South,189,13.0,22.0,20,-99.99,,,-99.99,,2013-03-14 20:42:00,
2013-03-14 13:52:00,62.0,18.0,-100.00,South,191,13.0,22.0,18,-99.99,,,-99.99,,2013-03-14 20:52:00,
2013-03-14 14:02:00,61.0,17.0,-100.00,SSW,196,13.0,21.0,18,-99.99,,,-99.99,,2013-03-14 21:02:00,
2013-03-14 14:12:00,62.0,18.0,-100.00,SSW,199,14.0,22.0,18,-99.99,,,-99.99,,2013-03-14 21:12:00,
2013-03-14 14:22:00,62.0,23.0,-100.00,South,188,12.0,19.0,22,-99.99,,,-99.99,,2013-03-14 21:22:00,
2013-03-14 14:32:00,62.0,20.0,-100.00,SSW,192,11.0,24.0,20,-99.99,,,-99.99,,2013-03-14 21:32:00,
2013-03-14 14:43:00,62.0,18.0,-100.00,South,186,12.0,24.0,18,-99.99,,,-99.99,,2013-03-14 21:43:00,
2013-03-14 14:52:00,64.0,18.0,-100.00,South,185,13.0,21.0,17,-99.99,,,-99.99,,2013-03-14 21:52:00,
2013-03-14 15:03:00,63.0,18.0,-100.00,South,189,12.0,25.0,17,-99.99,,,-99.99,,2013-03-14 22:03:00,
2013-03-14 15:12:00,63.0,19.0,-100.00,SSW,192,13.0,23.0,18,-99.99,,,-99.99,,2013-03-14 22:12:00,
2013-03-14 15:23:00,63.0,19.0,-100.00,South,185,12.0,22.0,18,-99.99,,,-99.99,,2013-03-14 22:23:00,
2013-03-14 15:33:00,63.0,18.0,-100.00,South,175,11.0,20.0,17,-99.99,,,-99.99,,2013-03-14 22:33:00,
2013-03-14 15:42:00,62.0,19.0,-100.00,South,188,11.0,19.0,19,-99.99,,,-99.99,,2013-03-14 22:42:00,
2013-03-14 15:52:00,61.0,19.0,-100.00,South,189,13.0,24.0,19,-99.99,,,-99.99,,2013-03-14 22:52:00,
2013-03-14 16:02:00,61.0,21.0,-100.00,South,184,11.0,19.0,21,-99.99,,,-99.99,,2013-03-14 23:02:00,
2013-03-14 16:12:00,61.0,20.0,-100.00,South,184,9.0,18.0,20,-99.99,,,-99.99,,2013-03-14 23:12:00,
2013-03-14 16:22:00,61.0,18.0,-100.00,South,189,12.0,21.0,19,-99.99,,,-99.99,,2013-03-14 23:22:00,
2013-03-14 16:33:00,61.0,20.0,-100.00,South,182,11.0,18.0,20,-99.99,,,-99.99,,2013-03-14 23:33:00,
2013-03-14 16:42:00,61.0,20.0,-100.00,South,191,10.0,16.0,20,-99.99,,,-99.99,,2013-03-14 23:42:00,
2013-03-14 16:53:00,61.0,21.0,-100.00,SSW,192,10.0,15.0,21,-99.99,,,-99.99,,2013-03-14 23:53:00,
2013-03-14 17:02:00,61.0,22.0,-100.00,SSW,198,12.0,19.0,22,-99.99,,,-99.99,,2013-03-15 00:02:00,
2013-03-14 17:12:00,61.0,21.0,-100.00,SSW,200,11.0,17.0,21,-99.99,,,-99.99,,2013-03-15 00:12:00,
2013-03-14 17:22:00,60.0,20.0,-100.00,SSW,199,10.0,16.0,21,-99.99,,,-99.99,,2013-03-15 00:22:00,
2013-03-14 17:32:00,60.0,20.0,-100.00,SSW,196,11.0,19.0,21,-99.99,,,-99.99,,2013-03-15 00:32:00,
2013-03-14 17:42:00,60.0,20.0,-100.00,SSW,196,11.0,19.0,21,-99.99,,,-99.99,,2013-03-15 00:42:00,
2013-03-14 17:52:00,59.0,21.0,-100.00,South,188,7.0,14.0,23,-99.99,,,-99.99,,2013-03-15 00:52:00,
2013-03-14 18:02:00,58.0,20.0,-100.00,South,186,7.0,13.0,23,-99.99,,,-99.99,,2013-03-15 01:02:00,
2013-03-14 18:11:00,58.0,21.0,-100.00,South,185,7.0,12.0,24,-99.99,,,-99.99,,2013-03-15 01:11:00,
2013-03-14 18:22:00,57.0,20.0,-100.00,South,189,8.0,14.0,23,-99.99,,,-99.99,,2013-03-15 01:22:00,
2013-03-14 18:32:00,57.0,20.0,-100.00,South,185,7.0,14.0,23,-99.99,,,-99.99,,2013-03-15 01:32:00,
2013-03-14 18:42:00,57.0,19.0,-100.00,South,184,7.0,15.0,23,-99.99,,,-99.99,,2013-03-15 01:42:00,
2013-03-14 18:52:00,56.0,19.0,-100.00,South,184,6.0,12.0,23,-99.99,,,-99.99,,2013-03-15 01:52:00,
2013-03-14 19:02:00,55.0,19.0,-100.00,South,182,6.0,10.0,24,-99.99,,,-99.99,,2013-03-15 02:02:00,
2013-03-14 19:12:00,55.0,19.0,-100.00,South,179,6.0,13.0,24,-99.99,,,-99.99,,2013-03-15 02:12:00,
2013-03-14 19:22:00,55.0,19.0,-100.00,South,181,6.0,11.0,24,-99.99,,,-99.99,,2013-03-15 02:22:00,
2013-03-14 19:31:00,46.0,24.0,-100.00,WNW,302,0.0,2.0,42,-99.99,,,-99.99,,2013-03-15 02:31:00,
2013-03-14 19:32:00,55.0,20.0,-100.00,South,184,6.0,10.0,25,-99.99,,,-99.99,,2013-03-15 02:32:00,
2013-03-14 19:42:00,54.0,19.0,-100.00,South,191,4.0,10.0,25,-99.99,,,-99.99,,2013-03-15 02:42:00,
2013-03-14 19:52:00,54.0,19.0,-100.00,South,181,3.0,9.0,25,-99.99,,,-99.99,,2013-03-15 02:52:00,
2013-03-14 20:02:00,54.0,19.0,-100.00,South,181,3.0,9.0,25,-99.99,,,-99.99,,2013-03-15 03:02:00,
2013-03-14 20:12:00,46.0,24.0,-100.00,WNW,302,0.0,2.0,42,-99.99,,,-99.99,,2013-03-15 03:12:00,
2013-03-14 20:22:00,46.0,24.0,-100.00,WNW,302,0.0,2.0,42,-99.99,,,-99.99,,2013-03-15 03:22:00,
2013-03-14 21:03:00,40.0,25.0,-100.00,North,-999,0.0,0.0,55,-99.99,,,-99.99,,2013-03-15 04:03:00,
2013-03-14 21:12:00,39.0,24.0,-100.00,NNE,27,0.0,2.0,54,-99.99,,,-99.99,,2013-03-15 04:12:00,
2013-03-14 21:22:00,38.0,24.0,-100.00,NE,45,0.0,0.0,55,-99.99,,,-99.99,,2013-03-15 04:22:00,
2013-03-14 21:32:00,38.0,24.0,-100.00,North,-999,0.0,0.0,57,-99.99,,,-99.99,,2013-03-15 04:32:00,
2013-03-14 21:42:00,38.0,24.0,-100.00,NE,40,0.0,3.0,56,-99.99,,,-99.99,,2013-03-15 04:42:00,
2013-03-14 21:52:00,38.0,24.0,-100.00,North,-999,0.0,0.0,57,-99.99,,,-99.99,,2013-03-15 04:52:00,
2013-03-14 22:02:00,38.0,24.0,-100.00,North,-999,0.0,0.0,57,-99.99,,,-99.99,,2013-03-15 05:02:00,
2013-03-14 22:12:00,38.0,24.0,-100.00,NE,47,0.0,0.0,56,-99.99,,,-99.99,,2013-03-15 05:12:00,
2013-03-14 22:22:00,37.0,25.0,-100.00,NE,37,0.0,2.0,62,-99.99,,,-99.99,,2013-03-15 05:22:00,
2013-03-14 22:32:00,37.0,25.0,-100.00,SE,134,1.0,6.0,62,-99.99,,,-99.99,,2013-03-15 05:32:00,
2013-03-14 22:42:00,44.0,25.0,-100.00,SSE,168,4.0,7.0,47,-99.99,,,-99.99,,2013-03-15 05:42:00,
2013-03-14 22:52:00,51.0,23.0,-100.00,SSE,167,5.0,12.0,32,-99.99,,,-99.99,,2013-03-15 05:52:00,
2013-03-14 23:02:00,53.0,22.0,-100.00,SSE,165,6.0,14.0,29,-99.99,,,-99.99,,2013-03-15 06:02:00,
2013-03-14 23:12:00,54.0,21.0,-100.00,SSE,164,7.0,13.0,28,-99.99,,,-99.99,,2013-03-15 06:12:00,
2013-03-14 23:22:00,52.0,22.0,-100.00,South,175,5.0,10.0,30,-99.99,,,-99.99,,2013-03-15 06:22:00,
2013-03-14 23:32:00,52.0,22.0,-100.00,South,174,5.0,11.0,30,-99.99,,,-99.99,,2013-03-15 06:32:00,
2013-03-14 23:42:00,52.0,22.0,-100.00,South,182,4.0,9.0,30,-99.99,,,-99.99,,2013-03-15 06:42:00,
2013-03-14 23:52:00,50.0,24.0,-100.00,SSW,205,3.0,6.0,35,-99.99,,,-99.99,,2013-03-15 06:52:00,